sensor_id;sensor_type;location;lat;lon;timestamp;temperature;humidity
29713;DHT22;16623;53.632;10.016;2023-06-14T00:01:38;14.50;99.90
29713;DHT22;16623;53.632;10.016;2023-06-14T00:04:03;14.50;99.90
29713;DHT22;16623;53.632;10.016;2023-06-14T00:06:31;14.50;99.90
29713;DHT22;16623;53.632;10.016;2023-06-14T00:08:56;14.50;99.90
29713;DHT22;16623;53.632;10.016;2023-06-14T00:11:22;14.40;99.90
29713;DHT22;16623;53.632;10.016;2023-06-14T00:13:48;14.40;99.90
29713;DHT22;16623;53.632;10.016;2023-06-14T00:16:13;14.40;99.90
29713;DHT22;16623;53.632;10.016;2023-06-14T00:18:39;14.40;99.90
29713;DHT22;16623;53.632;10.016;2023-06-14T00:21:05;14.30;99.90
29713;DHT22;16623;53.632;10.016;2023-06-14T00:23:30;14.40;99.90
29713;DHT22;16623;53.632;10.016;2023-06-14T00:25:56;14.30;99.90
29713;DHT22;16623;53.632;10.016;2023-06-14T00:28:21;14.20;99.90
29713;DHT22;16623;53.632;10.016;2023-06-14T00:30:47;14.30;99.90
29713;DHT22;16623;53.632;10.016;2023-06-14T00:33:13;14.20;99.90
29713;DHT22;16623;53.632;10.016;2023-06-14T00:35:38;14.20;99.90
29713;DHT22;16623;53.632;10.016;2023-06-14T00:38:04;14.20;99.90
29713;DHT22;16623;53.632;10.016;2023-06-14T00:40:29;14.20;99.90
29713;DHT22;16623;53.632;10.016;2023-06-14T00:42:55;14.20;99.90
29713;DHT22;16623;53.632;10.016;2023-06-14T00:45:21;14.10;99.90
29713;DHT22;16623;53.632;10.016;2023-06-14T00:47:47;14.10;99.90
29713;DHT22;16623;53.632;10.016;2023-06-14T00:50:16;14.10;99.90
29713;DHT22;16623;53.632;10.016;2023-06-14T00:52:42;14.10;99.90
29713;DHT22;16623;53.632;10.016;2023-06-14T00:55:08;14.10;99.90
29713;DHT22;16623;53.632;10.016;2023-06-14T00:57:34;14.00;99.90
29713;DHT22;16623;53.632;10.016;2023-06-14T01:00:03;14.10;99.90
29713;DHT22;16623;53.632;10.016;2023-06-14T01:02:30;14.10;99.90
29713;DHT22;16623;53.632;10.016;2023-06-14T01:04:56;14.10;99.90
29713;DHT22;16623;53.632;10.016;2023-06-14T01:10:46;14.10;99.90
29713;DHT22;16623;53.632;10.016;2023-06-14T01:13:27;14.20;99.90
29713;DHT22;16623;53.632;10.016;2023-06-14T01:15:55;14.20;99.90
29713;DHT22;16623;53.632;10.016;2023-06-14T01:18:22;14.30;99.90
29713;DHT22;16623;53.632;10.016;2023-06-14T01:20:49;14.20;99.90
29713;DHT22;16623;53.632;10.016;2023-06-14T01:23:17;14.20;99.90
29713;DHT22;16623;53.632;10.016;2023-06-14T01:25:44;14.10;99.90
29713;DHT22;16623;53.632;10.016;2023-06-14T01:28:10;14.00;99.90
29713;DHT22;16623;53.632;10.016;2023-06-14T01:30:38;13.90;99.90
29713;DHT22;16623;53.632;10.016;2023-06-14T01:33:04;13.90;99.90
29713;DHT22;16623;53.632;10.016;2023-06-14T01:35:31;13.90;99.90
29713;DHT22;16623;53.632;10.016;2023-06-14T01:37:57;14.00;99.90
29713;DHT22;16623;53.632;10.016;2023-06-14T01:40:24;13.90;99.90
29713;DHT22;16623;53.632;10.016;2023-06-14T01:42:50;13.90;99.90
29713;DHT22;16623;53.632;10.016;2023-06-14T01:45:18;14.00;99.90
29713;DHT22;16623;53.632;10.016;2023-06-14T01:47:44;14.10;99.90
29713;DHT22;16623;53.632;10.016;2023-06-14T01:50:11;14.10;99.90
29713;DHT22;16623;53.632;10.016;2023-06-14T01:52:37;14.10;99.90
29713;DHT22;16623;53.632;10.016;2023-06-14T01:55:04;14.00;99.90
29713;DHT22;16623;53.632;10.016;2023-06-14T01:57:30;13.90;99.90
29713;DHT22;16623;53.632;10.016;2023-06-14T01:59:56;13.90;99.90
29713;DHT22;16623;53.632;10.016;2023-06-14T02:02:21;13.90;99.90
29713;DHT22;16623;53.632;10.016;2023-06-14T02:05:15;13.90;99.90
29713;DHT22;16623;53.632;10.016;2023-06-14T02:07:44;14.00;99.90
29713;DHT22;16623;53.632;10.016;2023-06-14T02:10:10;14.00;99.90
29713;DHT22;16623;53.632;10.016;2023-06-14T02:12:35;13.90;99.90
29713;DHT22;16623;53.632;10.016;2023-06-14T02:15:01;13.90;99.90
29713;DHT22;16623;53.632;10.016;2023-06-14T02:17:26;13.80;99.90
29713;DHT22;16623;53.632;10.016;2023-06-14T02:19:52;13.80;99.90
29713;DHT22;16623;53.632;10.016;2023-06-14T02:22:17;13.80;99.90
29713;DHT22;16623;53.632;10.016;2023-06-14T02:24:43;13.80;99.90
29713;DHT22;16623;53.632;10.016;2023-06-14T02:27:09;13.80;99.90
29713;DHT22;16623;53.632;10.016;2023-06-14T02:29:37;13.70;99.90
29713;DHT22;16623;53.632;10.016;2023-06-14T02:32:06;13.80;99.90
29713;DHT22;16623;53.632;10.016;2023-06-14T02:34:33;13.80;99.90
29713;DHT22;16623;53.632;10.016;2023-06-14T02:36:59;13.70;99.90
29713;DHT22;16623;53.632;10.016;2023-06-14T02:39:25;13.70;99.90
29713;DHT22;16623;53.632;10.016;2023-06-14T02:41:50;13.60;99.90
29713;DHT22;16623;53.632;10.016;2023-06-14T02:44:18;13.50;99.90
29713;DHT22;16623;53.632;10.016;2023-06-14T02:46:44;13.50;99.90
29713;DHT22;16623;53.632;10.016;2023-06-14T02:49:13;13.50;99.90
29713;DHT22;16623;53.632;10.016;2023-06-14T02:51:39;13.50;99.90
29713;DHT22;16623;53.632;10.016;2023-06-14T02:54:05;13.40;99.90
29713;DHT22;16623;53.632;10.016;2023-06-14T02:56:34;13.50;99.90
29713;DHT22;16623;53.632;10.016;2023-06-14T02:59:00;13.50;99.90
29713;DHT22;16623;53.632;10.016;2023-06-14T03:01:26;13.60;99.90
29713;DHT22;16623;53.632;10.016;2023-06-14T03:04:00;13.70;99.90
29713;DHT22;16623;53.632;10.016;2023-06-14T03:06:28;13.70;99.90
29713;DHT22;16623;53.632;10.016;2023-06-14T03:08:55;13.70;99.90
29713;DHT22;16623;53.632;10.016;2023-06-14T03:11:24;13.60;99.90
29713;DHT22;16623;53.632;10.016;2023-06-14T03:13:50;13.60;99.90
29713;DHT22;16623;53.632;10.016;2023-06-14T03:16:16;13.50;99.90
29713;DHT22;16623;53.632;10.016;2023-06-14T03:18:45;13.50;99.90
29713;DHT22;16623;53.632;10.016;2023-06-14T03:21:10;13.40;99.90
29713;DHT22;16623;53.632;10.016;2023-06-14T03:23:36;13.30;99.90
29713;DHT22;16623;53.632;10.016;2023-06-14T03:26:02;13.30;99.90
29713;DHT22;16623;53.632;10.016;2023-06-14T03:28:27;13.40;99.90
29713;DHT22;16623;53.632;10.016;2023-06-14T03:30:53;13.40;99.90
29713;DHT22;16623;53.632;10.016;2023-06-14T03:33:19;13.40;99.90
29713;DHT22;16623;53.632;10.016;2023-06-14T03:35:44;13.40;99.90
29713;DHT22;16623;53.632;10.016;2023-06-14T03:38:10;13.40;99.90
29713;DHT22;16623;53.632;10.016;2023-06-14T03:40:36;13.40;99.90
29713;DHT22;16623;53.632;10.016;2023-06-14T03:43:01;13.50;99.90
29713;DHT22;16623;53.632;10.016;2023-06-14T03:45:27;13.60;99.90
29713;DHT22;16623;53.632;10.016;2023-06-14T03:47:53;13.60;99.90
29713;DHT22;16623;53.632;10.016;2023-06-14T03:50:20;13.80;99.90
29713;DHT22;16623;53.632;10.016;2023-06-14T03:52:47;14.20;99.90
29713;DHT22;16623;53.632;10.016;2023-06-14T03:55:14;14.70;99.90
29713;DHT22;16623;53.632;10.016;2023-06-14T03:57:41;15.30;99.90
29713;DHT22;16623;53.632;10.016;2023-06-14T04:00:09;15.80;99.90
29713;DHT22;16623;53.632;10.016;2023-06-14T04:02:35;16.00;99.90
29713;DHT22;16623;53.632;10.016;2023-06-14T04:05:02;16.10;99.90
29713;DHT22;16623;53.632;10.016;2023-06-14T04:07:28;15.90;99.90
29713;DHT22;16623;53.632;10.016;2023-06-14T04:09:54;15.80;99.90
29713;DHT22;16623;53.632;10.016;2023-06-14T04:12:20;15.80;99.90
29713;DHT22;16623;53.632;10.016;2023-06-14T04:14:46;15.70;99.90
29713;DHT22;16623;53.632;10.016;2023-06-14T04:17:12;15.50;99.90
29713;DHT22;16623;53.632;10.016;2023-06-14T04:19:37;15.50;99.90
29713;DHT22;16623;53.632;10.016;2023-06-14T04:22:03;15.50;99.90
29713;DHT22;16623;53.632;10.016;2023-06-14T04:24:29;15.50;99.90
29713;DHT22;16623;53.632;10.016;2023-06-14T04:27:00;15.50;99.90
29713;DHT22;16623;53.632;10.016;2023-06-14T04:29:27;15.50;99.90
29713;DHT22;16623;53.632;10.016;2023-06-14T04:31:55;15.50;99.90
29713;DHT22;16623;53.632;10.016;2023-06-14T04:34:26;15.60;99.90
29713;DHT22;16623;53.632;10.016;2023-06-14T04:36:55;16.10;99.90
29713;DHT22;16623;53.632;10.016;2023-06-14T04:39:22;16.50;99.90
29713;DHT22;16623;53.632;10.016;2023-06-14T04:41:48;16.70;99.90
29713;DHT22;16623;53.632;10.016;2023-06-14T04:44:18;16.90;99.90
29713;DHT22;16623;53.632;10.016;2023-06-14T04:46:47;16.80;99.90
29713;DHT22;16623;53.632;10.016;2023-06-14T04:49:16;17.00;99.90
29713;DHT22;16623;53.632;10.016;2023-06-14T04:51:43;17.30;99.90
29713;DHT22;16623;53.632;10.016;2023-06-14T04:54:10;17.70;99.90
29713;DHT22;16623;53.632;10.016;2023-06-14T04:56:39;18.00;99.90
29713;DHT22;16623;53.632;10.016;2023-06-14T04:59:06;18.20;99.90
29713;DHT22;16623;53.632;10.016;2023-06-14T05:01:32;18.30;99.90
29713;DHT22;16623;53.632;10.016;2023-06-14T05:03:58;18.20;99.90
29713;DHT22;16623;53.632;10.016;2023-06-14T05:06:24;17.80;99.90
29713;DHT22;16623;53.632;10.016;2023-06-14T05:08:49;17.60;99.90
29713;DHT22;16623;53.632;10.016;2023-06-14T05:11:16;17.20;99.90
29713;DHT22;16623;53.632;10.016;2023-06-14T05:13:42;16.90;99.90
29713;DHT22;16623;53.632;10.016;2023-06-14T05:16:08;16.60;99.90
29713;DHT22;16623;53.632;10.016;2023-06-14T05:18:34;16.40;99.90
29713;DHT22;16623;53.632;10.016;2023-06-14T05:21:01;16.30;99.90
29713;DHT22;16623;53.632;10.016;2023-06-14T05:23:26;16.30;99.90
29713;DHT22;16623;53.632;10.016;2023-06-14T05:25:52;16.20;99.90
29713;DHT22;16623;53.632;10.016;2023-06-14T05:28:18;16.10;99.90
29713;DHT22;16623;53.632;10.016;2023-06-14T05:30:43;16.20;99.90
29713;DHT22;16623;53.632;10.016;2023-06-14T05:33:09;16.20;99.90
29713;DHT22;16623;53.632;10.016;2023-06-14T05:35:36;16.20;99.90
29713;DHT22;16623;53.632;10.016;2023-06-14T05:38:03;16.30;99.90
29713;DHT22;16623;53.632;10.016;2023-06-14T05:40:28;16.10;99.90
29713;DHT22;16623;53.632;10.016;2023-06-14T05:42:54;16.10;99.90
29713;DHT22;16623;53.632;10.016;2023-06-14T05:45:20;16.30;99.90
29713;DHT22;16623;53.632;10.016;2023-06-14T05:47:45;16.30;99.90
29713;DHT22;16623;53.632;10.016;2023-06-14T05:50:11;16.40;99.90
29713;DHT22;16623;53.632;10.016;2023-06-14T05:52:36;16.30;99.90
29713;DHT22;16623;53.632;10.016;2023-06-14T05:55:03;16.30;99.90
29713;DHT22;16623;53.632;10.016;2023-06-14T05:57:29;16.40;99.90
29713;DHT22;16623;53.632;10.016;2023-06-14T05:59:55;16.50;99.90
29713;DHT22;16623;53.632;10.016;2023-06-14T06:02:20;16.70;99.90
29713;DHT22;16623;53.632;10.016;2023-06-14T06:04:46;16.80;99.90
29713;DHT22;16623;53.632;10.016;2023-06-14T06:07:11;17.00;99.90
29713;DHT22;16623;53.632;10.016;2023-06-14T06:09:37;16.80;99.90
29713;DHT22;16623;53.632;10.016;2023-06-14T06:12:05;16.90;99.90
29713;DHT22;16623;53.632;10.016;2023-06-14T06:14:31;16.90;99.90
29713;DHT22;16623;53.632;10.016;2023-06-14T06:16:58;17.10;99.90
29713;DHT22;16623;53.632;10.016;2023-06-14T06:19:24;17.20;99.90
29713;DHT22;16623;53.632;10.016;2023-06-14T06:21:50;17.10;99.90
29713;DHT22;16623;53.632;10.016;2023-06-14T06:24:16;17.20;99.90
29713;DHT22;16623;53.632;10.016;2023-06-14T06:26:42;17.20;99.90
29713;DHT22;16623;53.632;10.016;2023-06-14T06:29:08;17.40;99.90
29713;DHT22;16623;53.632;10.016;2023-06-14T06:31:34;17.60;99.90
29713;DHT22;16623;53.632;10.016;2023-06-14T06:33:59;17.70;99.90
29713;DHT22;16623;53.632;10.016;2023-06-14T06:36:25;17.90;99.90
29713;DHT22;16623;53.632;10.016;2023-06-14T06:38:51;18.30;99.90
29713;DHT22;16623;53.632;10.016;2023-06-14T06:41:16;18.90;99.90
29713;DHT22;16623;53.632;10.016;2023-06-14T06:43:42;19.60;99.90
29713;DHT22;16623;53.632;10.016;2023-06-14T06:46:07;19.90;99.90
29713;DHT22;16623;53.632;10.016;2023-06-14T06:48:33;20.20;99.90
29713;DHT22;16623;53.632;10.016;2023-06-14T06:50:59;20.10;99.90
29713;DHT22;16623;53.632;10.016;2023-06-14T06:53:25;19.90;99.90
29713;DHT22;16623;53.632;10.016;2023-06-14T06:55:50;19.70;99.90
29713;DHT22;16623;53.632;10.016;2023-06-14T06:58:16;19.60;99.90
29713;DHT22;16623;53.632;10.016;2023-06-14T07:00:41;19.50;99.90
29713;DHT22;16623;53.632;10.016;2023-06-14T07:03:08;19.40;99.90
29713;DHT22;16623;53.632;10.016;2023-06-14T07:05:34;19.40;99.90
29713;DHT22;16623;53.632;10.016;2023-06-14T07:08:00;19.50;99.90
29713;DHT22;16623;53.632;10.016;2023-06-14T07:10:25;19.60;99.90
29713;DHT22;16623;53.632;10.016;2023-06-14T07:12:51;19.60;99.90
29713;DHT22;16623;53.632;10.016;2023-06-14T07:15:17;19.40;99.90
29713;DHT22;16623;53.632;10.016;2023-06-14T07:17:43;19.40;99.90
29713;DHT22;16623;53.632;10.016;2023-06-14T07:20:09;19.20;99.90
29713;DHT22;16623;53.632;10.016;2023-06-14T07:22:40;19.40;99.90
29713;DHT22;16623;53.632;10.016;2023-06-14T07:25:10;19.50;99.90
29713;DHT22;16623;53.632;10.016;2023-06-14T07:27:39;19.50;99.90
29713;DHT22;16623;53.632;10.016;2023-06-14T07:30:06;19.70;99.90
29713;DHT22;16623;53.632;10.016;2023-06-14T07:32:32;19.80;99.90
29713;DHT22;16623;53.632;10.016;2023-06-14T07:34:57;19.90;99.90
29713;DHT22;16623;53.632;10.016;2023-06-14T07:37:23;20.00;99.90
29713;DHT22;16623;53.632;10.016;2023-06-14T07:39:48;20.20;99.90
29713;DHT22;16623;53.632;10.016;2023-06-14T07:42:14;20.20;99.90
29713;DHT22;16623;53.632;10.016;2023-06-14T07:44:40;20.20;99.90
29713;DHT22;16623;53.632;10.016;2023-06-14T07:47:06;20.10;99.90
29713;DHT22;16623;53.632;10.016;2023-06-14T07:49:31;19.90;99.90
29713;DHT22;16623;53.632;10.016;2023-06-14T07:51:57;20.00;99.90
29713;DHT22;16623;53.632;10.016;2023-06-14T07:54:24;20.10;99.90
29713;DHT22;16623;53.632;10.016;2023-06-14T07:56:52;20.30;99.90
29713;DHT22;16623;53.632;10.016;2023-06-14T07:59:17;20.30;99.90
29713;DHT22;16623;53.632;10.016;2023-06-14T08:01:43;20.30;99.90
29713;DHT22;16623;53.632;10.016;2023-06-14T08:04:16;20.30;99.90
29713;DHT22;16623;53.632;10.016;2023-06-14T08:06:42;20.30;99.90
29713;DHT22;16623;53.632;10.016;2023-06-14T08:09:11;20.20;99.90
29713;DHT22;16623;53.632;10.016;2023-06-14T08:11:38;20.40;99.90
29713;DHT22;16623;53.632;10.016;2023-06-14T08:14:03;20.30;99.90
29713;DHT22;16623;53.632;10.016;2023-06-14T08:16:29;20.20;99.90
29713;DHT22;16623;53.632;10.016;2023-06-14T08:18:55;20.20;99.90
29713;DHT22;16623;53.632;10.016;2023-06-14T08:21:24;20.30;99.90
29713;DHT22;16623;53.632;10.016;2023-06-14T08:23:54;20.40;99.90
29713;DHT22;16623;53.632;10.016;2023-06-14T08:26:20;20.40;99.90
29713;DHT22;16623;53.632;10.016;2023-06-14T08:28:46;20.60;99.90
29713;DHT22;16623;53.632;10.016;2023-06-14T08:31:12;20.50;99.90
29713;DHT22;16623;53.632;10.016;2023-06-14T08:33:38;20.50;99.90
29713;DHT22;16623;53.632;10.016;2023-06-14T08:36:04;20.50;99.90
29713;DHT22;16623;53.632;10.016;2023-06-14T08:38:30;20.60;99.90
29713;DHT22;16623;53.632;10.016;2023-06-14T08:40:57;20.60;99.90
29713;DHT22;16623;53.632;10.016;2023-06-14T08:43:23;20.70;99.90
29713;DHT22;16623;53.632;10.016;2023-06-14T08:45:53;20.90;99.90
29713;DHT22;16623;53.632;10.016;2023-06-14T08:48:26;21.00;99.90
29713;DHT22;16623;53.632;10.016;2023-06-14T08:50:55;21.00;99.80
29713;DHT22;16623;53.632;10.016;2023-06-14T08:53:28;20.90;99.20
29713;DHT22;16623;53.632;10.016;2023-06-14T08:55:58;21.00;99.20
29713;DHT22;16623;53.632;10.016;2023-06-14T08:58:27;21.00;98.10
29713;DHT22;16623;53.632;10.016;2023-06-14T09:00:57;20.90;99.00
29713;DHT22;16623;53.632;10.016;2023-06-14T09:03:23;20.90;98.50
29713;DHT22;16623;53.632;10.016;2023-06-14T09:05:54;20.80;98.20
29713;DHT22;16623;53.632;10.016;2023-06-14T09:08:19;20.90;98.10
29713;DHT22;16623;53.632;10.016;2023-06-14T09:10:47;21.00;98.20
29713;DHT22;16623;53.632;10.016;2023-06-14T09:13:13;21.20;98.40
29713;DHT22;16623;53.632;10.016;2023-06-14T09:15:39;21.30;97.90
29713;DHT22;16623;53.632;10.016;2023-06-14T09:18:05;21.40;97.70
29713;DHT22;16623;53.632;10.016;2023-06-14T09:20:32;21.30;97.60
29713;DHT22;16623;53.632;10.016;2023-06-14T09:22:58;21.40;98.20
29713;DHT22;16623;53.632;10.016;2023-06-14T09:25:24;21.60;97.60
29713;DHT22;16623;53.632;10.016;2023-06-14T09:27:51;21.70;97.30
29713;DHT22;16623;53.632;10.016;2023-06-14T09:30:20;21.60;95.70
29713;DHT22;16623;53.632;10.016;2023-06-14T09:32:46;21.60;96.40
29713;DHT22;16623;53.632;10.016;2023-06-14T09:35:11;21.70;96.70
29713;DHT22;16623;53.632;10.016;2023-06-14T09:37:37;21.70;96.90
29713;DHT22;16623;53.632;10.016;2023-06-14T09:40:04;21.60;96.10
29713;DHT22;16623;53.632;10.016;2023-06-14T09:42:30;21.40;96.30
29713;DHT22;16623;53.632;10.016;2023-06-14T09:44:56;21.30;96.60
29713;DHT22;16623;53.632;10.016;2023-06-14T09:47:23;21.20;96.10
29713;DHT22;16623;53.632;10.016;2023-06-14T09:49:50;21.30;95.60
29713;DHT22;16623;53.632;10.016;2023-06-14T09:52:20;21.50;95.80
29713;DHT22;16623;53.632;10.016;2023-06-14T09:54:47;21.90;95.30
29713;DHT22;16623;53.632;10.016;2023-06-14T09:57:15;21.90;95.60
29713;DHT22;16623;53.632;10.016;2023-06-14T09:59:45;22.10;95.70
29713;DHT22;16623;53.632;10.016;2023-06-14T10:02:18;22.80;95.60
29713;DHT22;16623;53.632;10.016;2023-06-14T10:04:56;22.30;94.00
29713;DHT22;16623;53.632;10.016;2023-06-14T10:07:27;22.10;94.70
29713;DHT22;16623;53.632;10.016;2023-06-14T10:10:01;22.00;94.70
29713;DHT22;16623;53.632;10.016;2023-06-14T10:12:27;21.80;94.30
29713;DHT22;16623;53.632;10.016;2023-06-14T10:14:53;21.60;94.10
29713;DHT22;16623;53.632;10.016;2023-06-14T10:19:56;21.70;94.50
29713;DHT22;16623;53.632;10.016;2023-06-14T10:22:50;21.80;94.00
29713;DHT22;16623;53.632;10.016;2023-06-14T10:25:30;21.90;93.60
29713;DHT22;16623;53.632;10.016;2023-06-14T10:28:14;22.10;93.20
29713;DHT22;16623;53.632;10.016;2023-06-14T10:31:05;22.40;93.20
29713;DHT22;16623;53.632;10.016;2023-06-14T10:33:35;22.70;93.70
29713;DHT22;16623;53.632;10.016;2023-06-14T10:36:11;22.50;93.30
29713;DHT22;16623;53.632;10.016;2023-06-14T10:41:29;22.00;93.00
29713;DHT22;16623;53.632;10.016;2023-06-14T10:46:59;22.00;92.90
29713;DHT22;16623;53.632;10.016;2023-06-14T10:52:16;22.60;92.40
29713;DHT22;16623;53.632;10.016;2023-06-14T10:57:25;23.00;91.60
29713;DHT22;16623;53.632;10.016;2023-06-14T10:59:51;23.00;90.30
29713;DHT22;16623;53.632;10.016;2023-06-14T11:04:50;23.00;90.80
29713;DHT22;16623;53.632;10.016;2023-06-14T11:10:41;23.60;90.60
29713;DHT22;16623;53.632;10.016;2023-06-14T11:13:07;23.00;90.50
29713;DHT22;16623;53.632;10.016;2023-06-14T11:15:34;22.80;90.40
29713;DHT22;16623;53.632;10.016;2023-06-14T11:18:02;22.50;90.70
29713;DHT22;16623;53.632;10.016;2023-06-14T11:20:31;22.40;90.10
29713;DHT22;16623;53.632;10.016;2023-06-14T11:22:56;22.50;91.10
29713;DHT22;16623;53.632;10.016;2023-06-14T11:25:22;22.80;91.10
29713;DHT22;16623;53.632;10.016;2023-06-14T11:27:49;23.00;91.20
29713;DHT22;16623;53.632;10.016;2023-06-14T11:30:16;23.30;89.90
29713;DHT22;16623;53.632;10.016;2023-06-14T11:32:42;23.10;89.90
29713;DHT22;16623;53.632;10.016;2023-06-14T11:35:08;23.00;90.10
29713;DHT22;16623;53.632;10.016;2023-06-14T11:37:36;22.90;90.50
29713;DHT22;16623;53.632;10.016;2023-06-14T11:40:03;22.70;90.70
29713;DHT22;16623;53.632;10.016;2023-06-14T11:42:36;22.40;91.10
29713;DHT22;16623;53.632;10.016;2023-06-14T11:45:03;22.40;91.40
29713;DHT22;16623;53.632;10.016;2023-06-14T11:47:33;22.60;91.70
29713;DHT22;16623;53.632;10.016;2023-06-14T11:50:00;22.80;90.80
29713;DHT22;16623;53.632;10.016;2023-06-14T11:52:26;22.80;90.90
29713;DHT22;16623;53.632;10.016;2023-06-14T11:54:52;22.70;90.80
29713;DHT22;16623;53.632;10.016;2023-06-14T11:57:18;22.60;91.00
29713;DHT22;16623;53.632;10.016;2023-06-14T11:59:45;22.70;90.20
29713;DHT22;16623;53.632;10.016;2023-06-14T12:02:15;22.70;90.30
29713;DHT22;16623;53.632;10.016;2023-06-14T12:04:42;22.70;90.50
29713;DHT22;16623;53.632;10.016;2023-06-14T12:07:18;22.40;90.40
29713;DHT22;16623;53.632;10.016;2023-06-14T12:12:24;22.30;90.90
29713;DHT22;16623;53.632;10.016;2023-06-14T12:14:53;22.30;90.60
29713;DHT22;16623;53.632;10.016;2023-06-14T12:17:19;22.30;90.90
29713;DHT22;16623;53.632;10.016;2023-06-14T12:19:46;22.40;91.30
29713;DHT22;16623;53.632;10.016;2023-06-14T12:22:12;22.40;91.00
29713;DHT22;16623;53.632;10.016;2023-06-14T12:24:39;22.30;91.30
29713;DHT22;16623;53.632;10.016;2023-06-14T12:27:05;22.60;91.00
29713;DHT22;16623;53.632;10.016;2023-06-14T12:29:31;23.00;90.30
29713;DHT22;16623;53.632;10.016;2023-06-14T12:31:57;23.10;90.50
29713;DHT22;16623;53.632;10.016;2023-06-14T12:34:24;22.80;88.30
29713;DHT22;16623;53.632;10.016;2023-06-14T12:36:50;22.70;89.30
29713;DHT22;16623;53.632;10.016;2023-06-14T12:39:16;22.70;89.40
29713;DHT22;16623;53.632;10.016;2023-06-14T12:41:41;22.80;88.80
29713;DHT22;16623;53.632;10.016;2023-06-14T12:44:07;23.10;89.90
29713;DHT22;16623;53.632;10.016;2023-06-14T12:46:34;23.10;89.30
29713;DHT22;16623;53.632;10.016;2023-06-14T12:49:00;23.10;89.50
29713;DHT22;16623;53.632;10.016;2023-06-14T12:51:26;23.00;89.70
29713;DHT22;16623;53.632;10.016;2023-06-14T12:53:52;22.90;89.90
29713;DHT22;16623;53.632;10.016;2023-06-14T12:56:18;22.70;88.90
29713;DHT22;16623;53.632;10.016;2023-06-14T12:58:43;22.80;90.10
29713;DHT22;16623;53.632;10.016;2023-06-14T13:01:09;22.90;88.40
29713;DHT22;16623;53.632;10.016;2023-06-14T13:03:35;23.10;87.60
29713;DHT22;16623;53.632;10.016;2023-06-14T13:06:01;23.30;86.40
29713;DHT22;16623;53.632;10.016;2023-06-14T13:08:27;23.40;86.40
29713;DHT22;16623;53.632;10.016;2023-06-14T13:10:54;23.40;86.20
29713;DHT22;16623;53.632;10.016;2023-06-14T13:13:20;23.30;87.50
29713;DHT22;16623;53.632;10.016;2023-06-14T13:15:46;23.10;87.60
29713;DHT22;16623;53.632;10.016;2023-06-14T13:18:12;23.00;87.80
29713;DHT22;16623;53.632;10.016;2023-06-14T13:20:41;23.10;87.90
29713;DHT22;16623;53.632;10.016;2023-06-14T13:23:07;23.30;87.10
29713;DHT22;16623;53.632;10.016;2023-06-14T13:25:34;23.50;87.30
29713;DHT22;16623;53.632;10.016;2023-06-14T13:28:00;23.50;83.40
29713;DHT22;16623;53.632;10.016;2023-06-14T13:30:25;23.60;84.90
29713;DHT22;16623;53.632;10.016;2023-06-14T13:32:51;23.60;83.40
29713;DHT22;16623;53.632;10.016;2023-06-14T13:35:18;23.50;83.60
29713;DHT22;16623;53.632;10.016;2023-06-14T13:40:11;23.80;80.30
29713;DHT22;16623;53.632;10.016;2023-06-14T13:42:36;23.90;80.60
29713;DHT22;16623;53.632;10.016;2023-06-14T13:45:03;23.90;81.40
29713;DHT22;16623;53.632;10.016;2023-06-14T13:47:29;24.00;79.90
29713;DHT22;16623;53.632;10.016;2023-06-14T13:49:55;24.10;80.90
29713;DHT22;16623;53.632;10.016;2023-06-14T13:52:21;24.10;81.20
29713;DHT22;16623;53.632;10.016;2023-06-14T13:54:46;24.10;80.20
29713;DHT22;16623;53.632;10.016;2023-06-14T13:57:13;24.00;78.60
29713;DHT22;16623;53.632;10.016;2023-06-14T13:59:41;23.90;79.30
29713;DHT22;16623;53.632;10.016;2023-06-14T14:02:11;24.10;78.70
29713;DHT22;16623;53.632;10.016;2023-06-14T14:04:38;24.20;78.00
29713;DHT22;16623;53.632;10.016;2023-06-14T14:07:04;24.30;78.30
29713;DHT22;16623;53.632;10.016;2023-06-14T14:09:34;24.20;76.30
29713;DHT22;16623;53.632;10.016;2023-06-14T14:12:01;23.80;76.70
29713;DHT22;16623;53.632;10.016;2023-06-14T14:14:28;23.60;78.40
29713;DHT22;16623;53.632;10.016;2023-06-14T14:16:53;23.40;79.00
29713;DHT22;16623;53.632;10.016;2023-06-14T14:19:20;23.30;79.40
29713;DHT22;16623;53.632;10.016;2023-06-14T14:21:46;23.30;78.50
29713;DHT22;16623;53.632;10.016;2023-06-14T14:24:12;23.50;77.80
29713;DHT22;16623;53.632;10.016;2023-06-14T14:26:38;23.60;78.20
29713;DHT22;16623;53.632;10.016;2023-06-14T14:29:04;23.70;77.60
29713;DHT22;16623;53.632;10.016;2023-06-14T14:31:32;23.60;76.60
29713;DHT22;16623;53.632;10.016;2023-06-14T14:33:58;23.60;77.80
29713;DHT22;16623;53.632;10.016;2023-06-14T14:36:24;23.60;77.20
29713;DHT22;16623;53.632;10.016;2023-06-14T14:38:52;23.80;77.20
29713;DHT22;16623;53.632;10.016;2023-06-14T14:41:18;23.80;76.80
29713;DHT22;16623;53.632;10.016;2023-06-14T14:43:44;23.90;76.20
29713;DHT22;16623;53.632;10.016;2023-06-14T14:46:10;24.00;75.00
29713;DHT22;16623;53.632;10.016;2023-06-14T14:48:36;23.90;74.90
29713;DHT22;16623;53.632;10.016;2023-06-14T14:51:05;23.90;74.50
29713;DHT22;16623;53.632;10.016;2023-06-14T14:53:30;24.00;73.70
29713;DHT22;16623;53.632;10.016;2023-06-14T14:55:56;23.90;74.30
29713;DHT22;16623;53.632;10.016;2023-06-14T14:58:21;24.10;75.20
29713;DHT22;16623;53.632;10.016;2023-06-14T15:00:47;24.20;73.50
29713;DHT22;16623;53.632;10.016;2023-06-14T15:03:13;23.90;74.80
29713;DHT22;16623;53.632;10.016;2023-06-14T15:05:39;23.60;73.60
29713;DHT22;16623;53.632;10.016;2023-06-14T15:08:05;23.50;74.30
29713;DHT22;16623;53.632;10.016;2023-06-14T15:10:38;23.50;74.90
29713;DHT22;16623;53.632;10.016;2023-06-14T15:13:09;23.70;73.70
29713;DHT22;16623;53.632;10.016;2023-06-14T15:15:35;23.70;74.40
29713;DHT22;16623;53.632;10.016;2023-06-14T15:18:01;23.80;73.40
29713;DHT22;16623;53.632;10.016;2023-06-14T15:20:27;23.80;72.70
29713;DHT22;16623;53.632;10.016;2023-06-14T15:22:54;23.70;72.90
29713;DHT22;16623;53.632;10.016;2023-06-14T15:25:27;23.60;72.40
29713;DHT22;16623;53.632;10.016;2023-06-14T15:27:53;23.50;73.20
29713;DHT22;16623;53.632;10.016;2023-06-14T15:30:19;23.60;73.10
29713;DHT22;16623;53.632;10.016;2023-06-14T15:32:46;23.60;72.80
29713;DHT22;16623;53.632;10.016;2023-06-14T15:35:12;23.60;72.10
29713;DHT22;16623;53.632;10.016;2023-06-14T15:37:38;23.50;72.50
29713;DHT22;16623;53.632;10.016;2023-06-14T15:40:05;23.60;72.10
29713;DHT22;16623;53.632;10.016;2023-06-14T15:42:32;23.60;71.90